sensor_id;sensor_type;location;lat;lon;timestamp;P1;durP1;ratioP1;P2;durP2;ratioP2
19869;SDS011;10097;50.862;4.696;2022-11-15T00:01:47;26.57;;;12.90;;
19869;SDS011;10097;50.862;4.696;2022-11-15T00:04:12;23.03;;;12.63;;
19869;SDS011;10097;50.862;4.696;2022-11-15T00:06:38;22.73;;;12.63;;
19869;SDS011;10097;50.862;4.696;2022-11-15T00:09:03;23.63;;;12.50;;
19869;SDS011;10097;50.862;4.696;2022-11-15T00:11:29;25.00;;;12.87;;
19869;SDS011;10097;50.862;4.696;2022-11-15T00:13:55;23.30;;;12.20;;
19869;SDS011;10097;50.862;4.696;2022-11-15T00:16:21;22.77;;;12.70;;
19869;SDS011;10097;50.862;4.696;2022-11-15T00:18:48;30.17;;;14.10;;
19869;SDS011;10097;50.862;4.696;2022-11-15T00:21:14;23.73;;;13.00;;
19869;SDS011;10097;50.862;4.696;2022-11-15T00:23:40;23.50;;;13.40;;
19869;SDS011;10097;50.862;4.696;2022-11-15T00:26:06;21.70;;;12.13;;
19869;SDS011;10097;50.862;4.696;2022-11-15T00:28:35;25.60;;;12.87;;
19869;SDS011;10097;50.862;4.696;2022-11-15T00:31:02;27.27;;;12.80;;
19869;SDS011;10097;50.862;4.696;2022-11-15T00:33:29;26.07;;;12.67;;
19869;SDS011;10097;50.862;4.696;2022-11-15T00:36:02;25.27;;;12.67;;
19869;SDS011;10097;50.862;4.696;2022-11-15T00:38:33;23.17;;;12.67;;
19869;SDS011;10097;50.862;4.696;2022-11-15T00:40:59;24.17;;;12.70;;
19869;SDS011;10097;50.862;4.696;2022-11-15T00:43:25;25.83;;;12.07;;
19869;SDS011;10097;50.862;4.696;2022-11-15T00:45:51;22.73;;;13.00;;
19869;SDS011;10097;50.862;4.696;2022-11-15T00:48:17;23.73;;;11.53;;
19869;SDS011;10097;50.862;4.696;2022-11-15T00:50:42;23.07;;;11.27;;
19869;SDS011;10097;50.862;4.696;2022-11-15T00:53:08;29.30;;;14.57;;
19869;SDS011;10097;50.862;4.696;2022-11-15T00:55:35;20.47;;;12.37;;
19869;SDS011;10097;50.862;4.696;2022-11-15T00:58:00;23.00;;;13.40;;
19869;SDS011;10097;50.862;4.696;2022-11-15T01:00:26;25.23;;;12.33;;
19869;SDS011;10097;50.862;4.696;2022-11-15T01:02:52;26.67;;;13.70;;
19869;SDS011;10097;50.862;4.696;2022-11-15T01:05:17;25.23;;;12.77;;
19869;SDS011;10097;50.862;4.696;2022-11-15T01:07:43;22.77;;;11.77;;
19869;SDS011;10097;50.862;4.696;2022-11-15T01:10:09;26.53;;;13.40;;
19869;SDS011;10097;50.862;4.696;2022-11-15T01:12:35;23.70;;;12.93;;
19869;SDS011;10097;50.862;4.696;2022-11-15T01:15:00;26.27;;;12.93;;
19869;SDS011;10097;50.862;4.696;2022-11-15T01:17:26;21.63;;;12.63;;
19869;SDS011;10097;50.862;4.696;2022-11-15T01:19:52;23.87;;;12.93;;
19869;SDS011;10097;50.862;4.696;2022-11-15T01:22:17;27.23;;;13.30;;
19869;SDS011;10097;50.862;4.696;2022-11-15T01:24:43;30.83;;;13.53;;
19869;SDS011;10097;50.862;4.696;2022-11-15T01:27:09;24.90;;;13.33;;
19869;SDS011;10097;50.862;4.696;2022-11-15T01:29:35;24.90;;;13.63;;
19869;SDS011;10097;50.862;4.696;2022-11-15T01:32:00;23.87;;;13.23;;
19869;SDS011;10097;50.862;4.696;2022-11-15T01:34:26;20.33;;;11.97;;
19869;SDS011;10097;50.862;4.696;2022-11-15T01:36:52;24.33;;;13.07;;
19869;SDS011;10097;50.862;4.696;2022-11-15T01:39:17;27.33;;;13.60;;
19869;SDS011;10097;50.862;4.696;2022-11-15T01:41:43;23.87;;;13.67;;
19869;SDS011;10097;50.862;4.696;2022-11-15T01:46:53;25.67;;;13.10;;
19869;SDS011;10097;50.862;4.696;2022-11-15T01:49:19;28.50;;;13.67;;
19869;SDS011;10097;50.862;4.696;2022-11-15T01:51:47;27.40;;;13.40;;
19869;SDS011;10097;50.862;4.696;2022-11-15T01:54:14;29.43;;;14.07;;
19869;SDS011;10097;50.862;4.696;2022-11-15T01:56:46;22.53;;;13.20;;
19869;SDS011;10097;50.862;4.696;2022-11-15T01:59:23;27.90;;;13.97;;
19869;SDS011;10097;50.862;4.696;2022-11-15T02:01:48;24.80;;;13.57;;
19869;SDS011;10097;50.862;4.696;2022-11-15T02:04:23;28.53;;;14.03;;
19869;SDS011;10097;50.862;4.696;2022-11-15T02:06:55;24.93;;;13.50;;
19869;SDS011;10097;50.862;4.696;2022-11-15T02:09:20;28.77;;;15.00;;
19869;SDS011;10097;50.862;4.696;2022-11-15T02:11:46;25.83;;;12.93;;
19869;SDS011;10097;50.862;4.696;2022-11-15T02:14:13;28.27;;;14.20;;
19869;SDS011;10097;50.862;4.696;2022-11-15T02:19:33;27.57;;;14.00;;
19869;SDS011;10097;50.862;4.696;2022-11-15T02:36:13;21.67;;;12.20;;
19869;SDS011;10097;50.862;4.696;2022-11-15T02:38:53;20.83;;;11.77;;
19869;SDS011;10097;50.862;4.696;2022-11-15T02:41:42;25.10;;;13.63;;
19869;SDS011;10097;50.862;4.696;2022-11-15T02:44:43;22.77;;;12.70;;
19869;SDS011;10097;50.862;4.696;2022-11-15T02:47:11;24.20;;;12.30;;
19869;SDS011;10097;50.862;4.696;2022-11-15T02:49:49;22.63;;;12.37;;
19869;SDS011;10097;50.862;4.696;2022-11-15T02:52:17;20.60;;;12.30;;
19869;SDS011;10097;50.862;4.696;2022-11-15T02:54:54;24.27;;;12.90;;
19869;SDS011;10097;50.862;4.696;2022-11-15T02:57:31;24.13;;;12.10;;
19869;SDS011;10097;50.862;4.696;2022-11-15T03:00:08;27.73;;;12.47;;
19869;SDS011;10097;50.862;4.696;2022-11-15T03:05:37;24.67;;;13.00;;
19869;SDS011;10097;50.862;4.696;2022-11-15T03:08:17;24.47;;;12.10;;
19869;SDS011;10097;50.862;4.696;2022-11-15T03:16:12;21.33;;;12.70;;
19869;SDS011;10097;50.862;4.696;2022-11-15T03:18:46;26.50;;;13.30;;
19869;SDS011;10097;50.862;4.696;2022-11-15T03:21:18;25.30;;;13.20;;
19869;SDS011;10097;50.862;4.696;2022-11-15T03:23:46;24.63;;;13.07;;
19869;SDS011;10097;50.862;4.696;2022-11-15T03:26:13;25.57;;;13.50;;
19869;SDS011;10097;50.862;4.696;2022-11-15T03:28:47;24.93;;;13.43;;
19869;SDS011;10097;50.862;4.696;2022-11-15T03:31:24;25.87;;;14.07;;
19869;SDS011;10097;50.862;4.696;2022-11-15T03:36:59;26.87;;;13.93;;
19869;SDS011;10097;50.862;4.696;2022-11-15T03:39:25;27.70;;;13.80;;
19869;SDS011;10097;50.862;4.696;2022-11-15T03:44:35;26.17;;;12.20;;
19869;SDS011;10097;50.862;4.696;2022-11-15T03:47:21;24.07;;;12.67;;
19869;SDS011;10097;50.862;4.696;2022-11-15T03:49:57;25.13;;;12.77;;
19869;SDS011;10097;50.862;4.696;2022-11-15T03:52:30;22.33;;;11.50;;
19869;SDS011;10097;50.862;4.696;2022-11-15T03:54:58;24.93;;;12.23;;
19869;SDS011;10097;50.862;4.696;2022-11-15T03:57:27;22.90;;;11.70;;
19869;SDS011;10097;50.862;4.696;2022-11-15T03:59:52;23.70;;;11.83;;
19869;SDS011;10097;50.862;4.696;2022-11-15T04:02:18;22.40;;;11.43;;
19869;SDS011;10097;50.862;4.696;2022-11-15T04:04:44;21.23;;;11.23;;
19869;SDS011;10097;50.862;4.696;2022-11-15T04:07:09;20.90;;;10.70;;
19869;SDS011;10097;50.862;4.696;2022-11-15T04:09:35;16.67;;;9.83;;
19869;SDS011;10097;50.862;4.696;2022-11-15T04:12:23;22.77;;;10.00;;
19869;SDS011;10097;50.862;4.696;2022-11-15T04:15:02;19.10;;;10.43;;
19869;SDS011;10097;50.862;4.696;2022-11-15T04:17:38;19.63;;;10.00;;
19869;SDS011;10097;50.862;4.696;2022-11-15T04:20:25;21.07;;;9.97;;
19869;SDS011;10097;50.862;4.696;2022-11-15T04:23:14;19.10;;;9.50;;
19869;SDS011;10097;50.862;4.696;2022-11-15T04:26:04;18.90;;;10.27;;
19869;SDS011;10097;50.862;4.696;2022-11-15T04:28:32;18.80;;;11.60;;
19869;SDS011;10097;50.862;4.696;2022-11-15T04:30:58;21.47;;;10.40;;
19869;SDS011;10097;50.862;4.696;2022-11-15T04:33:24;23.00;;;11.30;;
19869;SDS011;10097;50.862;4.696;2022-11-15T04:35:49;21.13;;;9.43;;
19869;SDS011;10097;50.862;4.696;2022-11-15T04:38:33;21.47;;;10.00;;
19869;SDS011;10097;50.862;4.696;2022-11-15T04:41:00;19.40;;;9.40;;
19869;SDS011;10097;50.862;4.696;2022-11-15T04:43:26;17.57;;;8.80;;
19869;SDS011;10097;50.862;4.696;2022-11-15T04:45:52;17.50;;;8.70;;
19869;SDS011;10097;50.862;4.696;2022-11-15T04:48:17;17.60;;;9.10;;
19869;SDS011;10097;50.862;4.696;2022-11-15T04:50:43;18.27;;;9.03;;
19869;SDS011;10097;50.862;4.696;2022-11-15T04:53:09;21.90;;;8.47;;
19869;SDS011;10097;50.862;4.696;2022-11-15T04:55:34;19.07;;;8.90;;
19869;SDS011;10097;50.862;4.696;2022-11-15T04:58:00;24.97;;;8.23;;
19869;SDS011;10097;50.862;4.696;2022-11-15T05:00:27;15.97;;;8.00;;
19869;SDS011;10097;50.862;4.696;2022-11-15T05:02:54;20.20;;;7.47;;
19869;SDS011;10097;50.862;4.696;2022-11-15T05:05:40;18.83;;;8.37;;
19869;SDS011;10097;50.862;4.696;2022-11-15T05:08:05;15.40;;;7.90;;
19869;SDS011;10097;50.862;4.696;2022-11-15T05:10:31;18.93;;;7.60;;
19869;SDS011;10097;50.862;4.696;2022-11-15T05:12:57;16.53;;;8.00;;
19869;SDS011;10097;50.862;4.696;2022-11-15T05:15:22;16.73;;;7.83;;
19869;SDS011;10097;50.862;4.696;2022-11-15T05:17:48;19.00;;;8.07;;
19869;SDS011;10097;50.862;4.696;2022-11-15T05:20:14;16.97;;;7.23;;
19869;SDS011;10097;50.862;4.696;2022-11-15T05:22:39;17.40;;;7.50;;
19869;SDS011;10097;50.862;4.696;2022-11-15T05:25:05;18.40;;;7.33;;
19869;SDS011;10097;50.862;4.696;2022-11-15T05:27:32;20.37;;;7.30;;
19869;SDS011;10097;50.862;4.696;2022-11-15T05:29:58;16.87;;;7.30;;
19869;SDS011;10097;50.862;4.696;2022-11-15T05:32:24;17.07;;;6.90;;
19869;SDS011;10097;50.862;4.696;2022-11-15T05:34:50;15.73;;;7.17;;
19869;SDS011;10097;50.862;4.696;2022-11-15T05:37:16;18.20;;;7.77;;
19869;SDS011;10097;50.862;4.696;2022-11-15T05:39:42;19.67;;;7.47;;
19869;SDS011;10097;50.862;4.696;2022-11-15T05:42:09;14.23;;;7.03;;
19869;SDS011;10097;50.862;4.696;2022-11-15T05:44:37;17.77;;;7.50;;
19869;SDS011;10097;50.862;4.696;2022-11-15T05:47:07;13.27;;;6.27;;
19869;SDS011;10097;50.862;4.696;2022-11-15T05:49:35;14.30;;;6.97;;
19869;SDS011;10097;50.862;4.696;2022-11-15T05:52:04;21.27;;;7.63;;
19869;SDS011;10097;50.862;4.696;2022-11-15T05:54:32;14.97;;;6.90;;
19869;SDS011;10097;50.862;4.696;2022-11-15T05:56:59;15.17;;;6.63;;
19869;SDS011;10097;50.862;4.696;2022-11-15T05:59:25;19.70;;;7.03;;
19869;SDS011;10097;50.862;4.696;2022-11-15T06:01:53;16.37;;;7.80;;
19869;SDS011;10097;50.862;4.696;2022-11-15T06:04:18;17.10;;;7.13;;
19869;SDS011;10097;50.862;4.696;2022-11-15T06:06:44;19.40;;;7.70;;
19869;SDS011;10097;50.862;4.696;2022-11-15T06:09:09;15.47;;;7.47;;
19869;SDS011;10097;50.862;4.696;2022-11-15T06:11:35;17.47;;;7.13;;
19869;SDS011;10097;50.862;4.696;2022-11-15T06:14:01;14.23;;;7.47;;
19869;SDS011;10097;50.862;4.696;2022-11-15T06:16:26;16.53;;;7.10;;
19869;SDS011;10097;50.862;4.696;2022-11-15T06:18:52;19.03;;;7.17;;
19869;SDS011;10097;50.862;4.696;2022-11-15T06:21:17;15.60;;;7.67;;
19869;SDS011;10097;50.862;4.696;2022-11-15T06:23:43;14.37;;;7.20;;
19869;SDS011;10097;50.862;4.696;2022-11-15T06:26:10;15.17;;;6.77;;
19869;SDS011;10097;50.862;4.696;2022-11-15T06:28:35;13.90;;;7.23;;
19869;SDS011;10097;50.862;4.696;2022-11-15T06:31:02;14.93;;;7.80;;
19869;SDS011;10097;50.862;4.696;2022-11-15T06:33:32;17.93;;;8.17;;
19869;SDS011;10097;50.862;4.696;2022-11-15T06:36:04;17.00;;;7.87;;
19869;SDS011;10097;50.862;4.696;2022-11-15T06:38:32;20.13;;;8.27;;
19869;SDS011;10097;50.862;4.696;2022-11-15T06:41:02;17.57;;;7.90;;
19869;SDS011;10097;50.862;4.696;2022-11-15T06:43:31;21.97;;;8.50;;
19869;SDS011;10097;50.862;4.696;2022-11-15T06:45:58;16.93;;;7.97;;
19869;SDS011;10097;50.862;4.696;2022-11-15T06:48:24;17.63;;;8.43;;
19869;SDS011;10097;50.862;4.696;2022-11-15T06:50:51;19.57;;;8.67;;
19869;SDS011;10097;50.862;4.696;2022-11-15T06:53:17;22.43;;;8.63;;
19869;SDS011;10097;50.862;4.696;2022-11-15T06:55:43;20.10;;;8.40;;
19869;SDS011;10097;50.862;4.696;2022-11-15T06:58:09;20.80;;;7.73;;
19869;SDS011;10097;50.862;4.696;2022-11-15T07:00:34;16.33;;;7.93;;
19869;SDS011;10097;50.862;4.696;2022-11-15T07:03:00;23.97;;;8.27;;
19869;SDS011;10097;50.862;4.696;2022-11-15T07:05:26;18.87;;;7.87;;
19869;SDS011;10097;50.862;4.696;2022-11-15T07:07:52;18.90;;;8.37;;
19869;SDS011;10097;50.862;4.696;2022-11-15T07:10:19;17.90;;;9.03;;
19869;SDS011;10097;50.862;4.696;2022-11-15T07:12:47;17.47;;;8.00;;
19869;SDS011;10097;50.862;4.696;2022-11-15T07:15:14;16.97;;;7.60;;
19869;SDS011;10097;50.862;4.696;2022-11-15T07:17:40;18.90;;;7.50;;
19869;SDS011;10097;50.862;4.696;2022-11-15T07:20:06;20.27;;;7.63;;
19869;SDS011;10097;50.862;4.696;2022-11-15T07:22:32;17.90;;;7.67;;
19869;SDS011;10097;50.862;4.696;2022-11-15T07:24:58;24.20;;;8.53;;
19869;SDS011;10097;50.862;4.696;2022-11-15T07:27:24;19.80;;;7.67;;
19869;SDS011;10097;50.862;4.696;2022-11-15T07:29:49;17.50;;;7.63;;
19869;SDS011;10097;50.862;4.696;2022-11-15T07:32:15;21.90;;;7.77;;
19869;SDS011;10097;50.862;4.696;2022-11-15T07:34:40;15.70;;;6.87;;
19869;SDS011;10097;50.862;4.696;2022-11-15T07:37:06;14.40;;;5.67;;
19869;SDS011;10097;50.862;4.696;2022-11-15T07:39:32;14.20;;;6.20;;
19869;SDS011;10097;50.862;4.696;2022-11-15T07:41:58;19.03;;;6.40;;
19869;SDS011;10097;50.862;4.696;2022-11-15T07:44:42;11.23;;;5.30;;
19869;SDS011;10097;50.862;4.696;2022-11-15T07:47:08;19.13;;;5.10;;
19869;SDS011;10097;50.862;4.696;2022-11-15T07:49:33;17.47;;;5.87;;
19869;SDS011;10097;50.862;4.696;2022-11-15T07:51:59;15.20;;;5.73;;
19869;SDS011;10097;50.862;4.696;2022-11-15T07:54:24;14.30;;;5.27;;
19869;SDS011;10097;50.862;4.696;2022-11-15T07:56:50;16.33;;;5.27;;
19869;SDS011;10097;50.862;4.696;2022-11-15T07:59:16;12.20;;;5.10;;
19869;SDS011;10097;50.862;4.696;2022-11-15T08:01:41;14.07;;;4.77;;
19869;SDS011;10097;50.862;4.696;2022-11-15T08:04:07;13.17;;;4.60;;
19869;SDS011;10097;50.862;4.696;2022-11-15T08:06:34;12.70;;;4.60;;
19869;SDS011;10097;50.862;4.696;2022-11-15T08:09:00;13.17;;;5.23;;
19869;SDS011;10097;50.862;4.696;2022-11-15T08:11:25;12.53;;;4.07;;
19869;SDS011;10097;50.862;4.696;2022-11-15T08:13:51;13.67;;;4.87;;
19869;SDS011;10097;50.862;4.696;2022-11-15T08:16:17;13.60;;;4.97;;
19869;SDS011;10097;50.862;4.696;2022-11-15T08:18:42;10.60;;;4.27;;
19869;SDS011;10097;50.862;4.696;2022-11-15T08:21:08;11.77;;;4.10;;
19869;SDS011;10097;50.862;4.696;2022-11-15T08:23:36;9.73;;;3.77;;
19869;SDS011;10097;50.862;4.696;2022-11-15T08:26:03;8.00;;;3.13;;
19869;SDS011;10097;50.862;4.696;2022-11-15T08:28:30;11.07;;;3.73;;
19869;SDS011;10097;50.862;4.696;2022-11-15T08:30:56;13.00;;;3.50;;
19869;SDS011;10097;50.862;4.696;2022-11-15T08:33:22;6.73;;;1.80;;
19869;SDS011;10097;50.862;4.696;2022-11-15T08:35:47;7.93;;;2.17;;
19869;SDS011;10097;50.862;4.696;2022-11-15T08:38:13;8.07;;;1.80;;
19869;SDS011;10097;50.862;4.696;2022-11-15T08:40:39;8.27;;;1.97;;
19869;SDS011;10097;50.862;4.696;2022-11-15T08:43:05;7.10;;;1.63;;
19869;SDS011;10097;50.862;4.696;2022-11-15T08:45:31;7.47;;;1.63;;
19869;SDS011;10097;50.862;4.696;2022-11-15T08:48:00;9.63;;;3.33;;
19869;SDS011;10097;50.862;4.696;2022-11-15T08:50:26;5.90;;;1.80;;
19869;SDS011;10097;50.862;4.696;2022-11-15T08:52:52;8.37;;;1.40;;
19869;SDS011;10097;50.862;4.696;2022-11-15T08:55:18;4.63;;;1.53;;
19869;SDS011;10097;50.862;4.696;2022-11-15T08:57:43;5.60;;;1.40;;
19869;SDS011;10097;50.862;4.696;2022-11-15T09:00:09;3.30;;;1.13;;
19869;SDS011;10097;50.862;4.696;2022-11-15T09:02:37;6.97;;;1.30;;
19869;SDS011;10097;50.862;4.696;2022-11-15T09:05:04;5.97;;;1.17;;
19869;SDS011;10097;50.862;4.696;2022-11-15T09:07:30;6.83;;;1.60;;
19869;SDS011;10097;50.862;4.696;2022-11-15T09:09:56;6.93;;;1.80;;
19869;SDS011;10097;50.862;4.696;2022-11-15T09:12:22;5.43;;;1.53;;
19869;SDS011;10097;50.862;4.696;2022-11-15T09:14:48;9.30;;;1.33;;
19869;SDS011;10097;50.862;4.696;2022-11-15T09:17:14;9.87;;;1.40;;
19869;SDS011;10097;50.862;4.696;2022-11-15T09:19:40;3.67;;;1.20;;
19869;SDS011;10097;50.862;4.696;2022-11-15T09:22:06;4.73;;;1.10;;
19869;SDS011;10097;50.862;4.696;2022-11-15T09:24:32;4.77;;;0.97;;
19869;SDS011;10097;50.862;4.696;2022-11-15T09:26:58;8.00;;;1.57;;
19869;SDS011;10097;50.862;4.696;2022-11-15T09:29:24;8.17;;;1.10;;
19869;SDS011;10097;50.862;4.696;2022-11-15T09:31:51;4.27;;;0.80;;
19869;SDS011;10097;50.862;4.696;2022-11-15T09:34:17;5.07;;;1.27;;
19869;SDS011;10097;50.862;4.696;2022-11-15T09:36:43;9.50;;;1.47;;
19869;SDS011;10097;50.862;4.696;2022-11-15T09:39:09;6.87;;;1.03;;
19869;SDS011;10097;50.862;4.696;2022-11-15T09:47:27;7.33;;;1.37;;
19869;SDS011;10097;50.862;4.696;2022-11-15T09:49:57;6.80;;;1.03;;
19869;SDS011;10097;50.862;4.696;2022-11-15T09:52:25;6.97;;;1.13;;
19869;SDS011;10097;50.862;4.696;2022-11-15T09:54:51;9.43;;;1.40;;
19869;SDS011;10097;50.862;4.696;2022-11-15T09:57:24;7.00;;;1.17;;
19869;SDS011;10097;50.862;4.696;2022-11-15T10:05:22;5.93;;;1.47;;
19869;SDS011;10097;50.862;4.696;2022-11-15T10:07:54;3.37;;;0.97;;
19869;SDS011;10097;50.862;4.696;2022-11-15T10:10:31;8.17;;;1.30;;
19869;SDS011;10097;50.862;4.696;2022-11-15T10:13:20;6.13;;;0.90;;
19869;SDS011;10097;50.862;4.696;2022-11-15T10:15:50;7.90;;;1.27;;
19869;SDS011;10097;50.862;4.696;2022-11-15T10:21:19;8.53;;;1.40;;
19869;SDS011;10097;50.862;4.696;2022-11-15T10:23:46;8.30;;;1.07;;
19869;SDS011;10097;50.862;4.696;2022-11-15T10:26:14;5.00;;;0.93;;
19869;SDS011;10097;50.862;4.696;2022-11-15T10:28:41;13.80;;;1.80;;
19869;SDS011;10097;50.862;4.696;2022-11-15T10:31:24;4.80;;;0.90;;
19869;SDS011;10097;50.862;4.696;2022-11-15T10:33:51;7.70;;;1.20;;
19869;SDS011;10097;50.862;4.696;2022-11-15T10:37:00;5.53;;;1.10;;
19869;SDS011;10097;50.862;4.696;2022-11-15T10:39:29;11.23;;;1.50;;
19869;SDS011;10097;50.862;4.696;2022-11-15T10:41:55;5.90;;;1.20;;
19869;SDS011;10097;50.862;4.696;2022-11-15T10:44:22;8.53;;;0.90;;
19869;SDS011;10097;50.862;4.696;2022-11-15T10:49:25;8.80;;;1.10;;
19869;SDS011;10097;50.862;4.696;2022-11-15T10:51:54;3.90;;;0.93;;
19869;SDS011;10097;50.862;4.696;2022-11-15T10:54:33;7.63;;;1.10;;
19869;SDS011;10097;50.862;4.696;2022-11-15T10:57:12;7.37;;;1.10;;
19869;SDS011;10097;50.862;4.696;2022-11-15T11:03:04;5.57;;;0.93;;
19869;SDS011;10097;50.862;4.696;2022-11-15T11:06:02;10.53;;;2.40;;
19869;SDS011;10097;50.862;4.696;2022-11-15T11:08:54;6.80;;;1.00;;
19869;SDS011;10097;50.862;4.696;2022-11-15T11:11:21;6.47;;;1.00;;
19869;SDS011;10097;50.862;4.696;2022-11-15T11:13:46;6.60;;;1.10;;
19869;SDS011;10097;50.862;4.696;2022-11-15T11:23:58;5.47;;;0.80;;
19869;SDS011;10097;50.862;4.696;2022-11-15T11:34:42;7.20;;;1.10;;
19869;SDS011;10097;50.862;4.696;2022-11-15T11:37:46;8.03;;;0.83;;
19869;SDS011;10097;50.862;4.696;2022-11-15T11:51:05;5.93;;;1.13;;
19869;SDS011;10097;50.862;4.696;2022-11-15T11:53:55;7.63;;;1.43;;
19869;SDS011;10097;50.862;4.696;2022-11-15T11:56:31;4.07;;;0.77;;
19869;SDS011;10097;50.862;4.696;2022-11-15T11:59:01;8.85;;;1.20;;
19869;SDS011;10097;50.862;4.696;2022-11-15T12:01:42;7.23;;;0.83;;
19869;SDS011;10097;50.862;4.696;2022-11-15T12:04:17;6.80;;;0.90;;
19869;SDS011;10097;50.862;4.696;2022-11-15T12:17:34;6.45;;;1.05;;
19869;SDS011;10097;50.862;4.696;2022-11-15T12:20:05;5.60;;;0.85;;
19869;SDS011;10097;50.862;4.696;2022-11-15T12:23:00;5.87;;;0.80;;
19869;SDS011;10097;50.862;4.696;2022-11-15T12:25:33;5.88;;;0.90;;
19869;SDS011;10097;50.862;4.696;2022-11-15T12:41:27;7.70;;;1.03;;
19869;SDS011;10097;50.862;4.696;2022-11-15T12:44:02;5.00;;;1.10;;
19869;SDS011;10097;50.862;4.696;2022-11-15T12:48:55;3.67;;;0.80;;
19869;SDS011;10097;50.862;4.696;2022-11-15T13:02:20;5.20;;;0.77;;
19869;SDS011;10097;50.862;4.696;2022-11-15T13:04:51;3.80;;;0.90;;
19869;SDS011;10097;50.862;4.696;2022-11-15T13:12:53;4.13;;;1.00;;
19869;SDS011;10097;50.862;4.696;2022-11-15T13:17:54;4.20;;;1.02;;
19869;SDS011;10097;50.862;4.696;2022-11-15T13:23:07;6.13;;;0.85;;
19869;SDS011;10097;50.862;4.696;2022-11-15T13:28:25;9.73;;;1.20;;
19869;SDS011;10097;50.862;4.696;2022-11-15T13:31:00;5.43;;;1.02;;
19869;SDS011;10097;50.862;4.696;2022-11-15T13:33:38;6.57;;;0.98;;
19869;SDS011;10097;50.862;4.696;2022-11-15T13:36:15;5.28;;;1.08;;
19869;SDS011;10097;50.862;4.696;2022-11-15T13:38:44;7.75;;;1.02;;
19869;SDS011;10097;50.862;4.696;2022-11-15T13:41:21;6.40;;;1.40;;
19869;SDS011;10097;50.862;4.696;2022-11-15T13:43:57;3.10;;;1.00;;
19869;SDS011;10097;50.862;4.696;2022-11-15T13:49:02;5.43;;;1.13;;
19869;SDS011;10097;50.862;4.696;2022-11-15T13:54:03;5.43;;;1.03;;
19869;SDS011;10097;50.862;4.696;2022-11-15T13:56:32;2.13;;;0.75;;
19869;SDS011;10097;50.862;4.696;2022-11-15T13:58:59;6.43;;;0.98;;
19869;SDS011;10097;50.862;4.696;2022-11-15T14:01:26;2.92;;;1.00;;
19869;SDS011;10097;50.862;4.696;2022-11-15T14:03:56;5.87;;;1.17;;
19869;SDS011;10097;50.862;4.696;2022-11-15T14:06:25;5.97;;;0.93;;
19869;SDS011;10097;50.862;4.696;2022-11-15T14:09:00;5.90;;;1.10;;
19869;SDS011;10097;50.862;4.696;2022-11-15T14:11:35;4.15;;;1.00;;
19869;SDS011;10097;50.862;4.696;2022-11-15T14:16:40;3.85;;;0.90;;
19869;SDS011;10097;50.862;4.696;2022-11-15T14:19:56;1.48;;;0.50;;
19869;SDS011;10097;50.862;4.696;2022-11-15T14:25:13;1.20;;;0.53;;
19869;SDS011;10097;50.862;4.696;2022-11-15T14:27:42;2.57;;;0.70;;
19869;SDS011;10097;50.862;4.696;2022-11-15T14:30:12;4.88;;;1.27;;
19869;SDS011;10097;50.862;4.696;2022-11-15T14:32:44;3.90;;;0.93;;
19869;SDS011;10097;50.862;4.696;2022-11-15T14:35:18;2.97;;;1.00;;
19869;SDS011;10097;50.862;4.696;2022-11-15T14:37:46;3.63;;;1.10;;
19869;SDS011;10097;50.862;4.696;2022-11-15T14:40:13;3.40;;;1.23;;
19869;SDS011;10097;50.862;4.696;2022-11-15T14:42:41;4.97;;;1.13;;
19869;SDS011;10097;50.862;4.696;2022-11-15T14:45:10;3.77;;;1.23;;
19869;SDS011;10097;50.862;4.696;2022-11-15T14:47:38;4.20;;;1.07;;
19869;SDS011;10097;50.862;4.696;2022-11-15T14:50:04;2.93;;;0.83;;
19869;SDS011;10097;50.862;4.696;2022-11-15T14:52:31;4.67;;;1.20;;
19869;SDS011;10097;50.862;4.696;2022-11-15T14:55:02;2.80;;;1.23;;
19869;SDS011;10097;50.862;4.696;2022-11-15T14:57:29;3.23;;;1.10;;
19869;SDS011;10097;50.862;4.696;2022-11-15T14:59:55;4.77;;;1.23;;
19869;SDS011;10097;50.862;4.696;2022-11-15T15:02:22;4.87;;;1.27;;
19869;SDS011;10097;50.862;4.696;2022-11-15T15:04:49;3.73;;;1.40;;
19869;SDS011;10097;50.862;4.696;2022-11-15T15:07:16;4.90;;;1.00;;
19869;SDS011;10097;50.862;4.696;2022-11-15T15:09:42;3.13;;;0.90;;
19869;SDS011;10097;50.862;4.696;2022-11-15T15:12:12;3.53;;;1.30;;
19869;SDS011;10097;50.862;4.696;2022-11-15T15:14:43;3.07;;;1.10;;
19869;SDS011;10097;50.862;4.696;2022-11-15T15:17:09;5.50;;;1.10;;
19869;SDS011;10097;50.862;4.696;2022-11-15T15:19:35;5.33;;;1.03;;
19869;SDS011;10097;50.862;4.696;2022-11-15T15:22:01;2.77;;;0.80;;
19869;SDS011;10097;50.862;4.696;2022-11-15T15:24:26;2.10;;;1.00;;
19869;SDS011;10097;50.862;4.696;2022-11-15T15:26:52;5.00;;;1.43;;
19869;SDS011;10097;50.862;4.696;2022-11-15T15:29:18;4.00;;;1.00;;
19869;SDS011;10097;50.862;4.696;2022-11-15T15:31:43;3.50;;;1.10;;
19869;SDS011;10097;50.862;4.696;2022-11-15T15:34:09;4.47;;;1.30;;
19869;SDS011;10097;50.862;4.696;2022-11-15T15:36:34;2.67;;;1.20;;
19869;SDS011;10097;50.862;4.696;2022-11-15T15:39:00;5.10;;;1.00;;
19869;SDS011;10097;50.862;4.696;2022-11-15T15:41:26;2.60;;;1.10;;
19869;SDS011;10097;50.862;4.696;2022-11-15T15:43:51;5.43;;;1.50;;
19869;SDS011;10097;50.862;4.696;2022-11-15T15:46:17;4.87;;;1.30;;
19869;SDS011;10097;50.862;4.696;2022-11-15T15:48:44;3.60;;;1.30;;
19869;SDS011;10097;50.862;4.696;2022-11-15T15:51:10;4.43;;;1.27;;
19869;SDS011;10097;50.862;4.696;2022-11-15T15:53:36;4.20;;;1.50;;
19869;SDS011;10097;50.862;4.696;2022-11-15T15:56:02;3.23;;;1.43;;
19869;SDS011;10097;50.862;4.696;2022-11-15T15:58:28;5.70;;;1.50;;
19869;SDS011;10097;50.862;4.696;2022-11-15T16:00:54;4.87;;;1.50;;
19869;SDS011;10097;50.862;4.696;2022-11-15T16:03:20;3.17;;;1.23;;
19869;SDS011;10097;50.862;4.696;2022-11-15T16:05:45;2.87;;;1.23;;
19869;SDS011;10097;50.862;4.696;2022-11-15T16:08:18;2.90;;;1.30;;
19869;SDS011;10097;50.862;4.696;2022-11-15T16:10:46;5.57;;;2.07;;
19869;SDS011;10097;50.862;4.696;2022-11-15T16:13:12;4.13;;;1.50;;
19869;SDS011;10097;50.862;4.696;2022-11-15T16:15:37;4.47;;;1.50;;
19869;SDS011;10097;50.862;4.696;2022-11-15T16:18:03;4.23;;;1.33;;
19869;SDS011;10097;50.862;4.696;2022-11-15T16:20:39;6.37;;;1.60;;
19869;SDS011;10097;50.862;4.696;2022-11-15T16:23:10;4.80;;;1.77;;
19869;SDS011;10097;50.862;4.696;2022-11-15T16:25:39;4.97;;;1.80;;
19869;SDS011;10097;50.862;4.696;2022-11-15T16:28:17;4.40;;;1.53;;
19869;SDS011;10097;50.862;4.696;2022-11-15T16:31:05;3.33;;;1.57;;
19869;SDS011;10097;50.862;4.696;2022-11-15T16:33:34;5.83;;;1.80;;
19869;SDS011;10097;50.862;4.696;2022-11-15T16:36:01;7.27;;;2.03;;
19869;SDS011;10097;50.862;4.696;2022-11-15T16:38:27;5.03;;;1.97;;
19869;SDS011;10097;50.862;4.696;2022-11-15T16:40:53;4.47;;;1.43;;
19869;SDS011;10097;50.862;4.696;2022-11-15T16:43:19;6.53;;;1.93;;
19869;SDS011;10097;50.862;4.696;2022-11-15T16:45:44;3.97;;;1.73;;
19869;SDS011;10097;50.862;4.696;2022-11-15T16:48:28;8.23;;;1.97;;
19869;SDS011;10097;50.862;4.696;2022-11-15T16:50:54;3.57;;;1.63;;
19869;SDS011;10097;50.862;4.696;2022-11-15T16:53:21;3.67;;;1.73;;
19869;SDS011;10097;50.862;4.696;2022-11-15T16:55:47;4.23;;;1.90;;
19869;SDS011;10097;50.862;4.696;2022-11-15T16:58:13;4.70;;;1.93;;
19869;SDS011;10097;50.862;4.696;2022-11-15T17:00:39;6.90;;;2.43;;
19869;SDS011;10097;50.862;4.696;2022-11-15T17:03:04;5.33;;;2.17;;
19869;SDS011;10097;50.862;4.696;2022-11-15T17:05:31;6.50;;;2.50;;
19869;SDS011;10097;50.862;4.696;2022-11-15T17:07:57;6.73;;;2.60;;
19869;SDS011;10097;50.862;4.696;2022-11-15T17:10:23;4.70;;;2.20;;
19869;SDS011;10097;50.862;4.696;2022-11-15T17:12:50;15.23;;;4.73;;